Time;durP1;ratioP1;P1;durP2;ratioP2;P2;SDS_P1;SDS_P2;PMS_P1;PMS_P2;Temp;Humidity;BMP_temperature;BMP_pressure;BME280_temperature;BME280_humidity;BME280_pressure;Samples;Min_cycle;Max_cycle;Signal;HPM_P1;HPM_P2
2024/03/26 00:02:18;;;;;;;8.70;3.30;;;;;;;5.19;100.00;100945.44;5008103;28;20216;-68
2024/03/26 00:04:44;;;;;;;11.47;3.13;;;;;;;5.16;100.00;100937.78;5020964;28;20226;-67
2024/03/26 00:07:09;;;;;;;7.20;2.63;;;;;;;4.73;100.00;100864.34;5014808;28;20956;-67
2024/03/26 00:09:35;;;;;;;9.00;2.70;;;;;;;5.31;100.00;100939.81;5014833;28;20186;-68
2024/03/26 00:12:00;;;;;;;7.40;2.40;;;;;;;4.71;100.00;100855.72;5012043;28;20469;-67
2024/03/26 00:14:26;;;;;;;8.93;3.00;;;;;;;5.26;100.00;100944.78;5015006;28;20188;-67
2024/03/26 00:16:51;;;;;;;7.73;2.53;;;;;;;4.81;100.00;100866.22;5009548;28;20666;-67
2024/03/26 00:19:17;;;;;;;7.93;3.10;;;;;;;4.96;100.00;100896.50;5014701;28;20297;-67
2024/03/26 00:21:42;;;;;;;7.57;2.93;;;;;;;5.17;100.00;100917.34;4987107;28;20235;-67
2024/03/26 00:24:07;;;;;;;9.70;3.10;;;;;;;5.21;100.00;100927.50;5016167;28;20606;-68
2024/03/26 00:26:35;;;;;;;9.53;2.60;;;;;;;5.22;100.00;100941.63;5022588;28;20184;-67
2024/03/26 00:29:00;;;;;;;11.57;2.80;;;;;;;5.20;100.00;100907.19;5013313;28;21173;-67
2024/03/26 00:31:31;;;;;;;12.10;3.47;;;;;;;5.14;100.00;100925.63;5008686;28;20504;-67
2024/03/26 00:33:57;;;;;;;10.80;3.33;;;;;;;5.15;100.00;100916.66;5013969;28;20188;-67
2024/03/26 00:36:23;;;;;;;7.77;2.70;;;;;;;4.81;100.00;100855.59;5020602;28;20443;-68
2024/03/26 00:38:48;;;;;;;9.33;2.97;;;;;;;4.64;100.00;100839.59;5017193;28;20439;-67
2024/03/26 00:41:14;;;;;;;8.87;3.00;;;;;;;4.42;100.00;100802.97;5009351;28;20575;-69
2024/03/26 00:43:39;;;;;;;8.03;2.90;;;;;;;4.97;100.00;100892.84;5018739;28;20357;-67
2024/03/26 00:46:05;;;;;;;9.10;2.70;;;;;;;4.42;100.00;100802.97;4990131;28;20444;-67
2024/03/26 00:48:30;;;;;;;13.20;2.60;;;;;;;4.57;100.00;100825.28;5015028;28;20192;-67
2024/03/26 00:50:55;;;;;;;7.33;3.03;;;;;;;4.98;100.00;100894.53;5014629;28;20750;-67
2024/03/26 00:53:21;;;;;;;6.83;3.20;;;;;;;4.07;100.00;100749.84;5016034;28;20200;-66
2024/03/26 00:55:46;;;;;;;9.60;3.30;;;;;;;4.39;100.00;100811.25;4988202;28;20196;-67
2024/03/26 00:58:12;;;;;;;10.80;3.20;;;;;;;4.56;100.00;100836.88;5013864;28;20188;-67
2024/03/26 01:00:40;;;;;;;12.30;3.37;;;;;;;4.75;100.00;100879.16;5007969;28;20188;-67
2024/03/26 01:03:05;;;;;;;9.50;3.30;;;;;;;4.85;100.00;100891.47;5012967;28;20195;-67
2024/03/26 01:05:31;;;;;;;10.10;3.60;;;;;;;4.89;100.00;100885.69;5016023;28;20450;-67
2024/03/26 01:07:56;;;;;;;8.50;3.20;;;;;;;4.81;100.00;100847.63;4987973;28;20576;-66
2024/03/26 01:10:22;;;;;;;9.47;3.20;;;;;;;4.38;100.00;100817.56;5010771;28;20350;-67
2024/03/26 01:12:47;;;;;;;9.70;3.20;;;;;;;4.70;100.00;100865.50;4993092;28;20199;-67
2024/03/26 01:15:13;;;;;;;12.40;3.70;;;;;;;4.85;100.00;100868.38;5023280;28;20188;-67
2024/03/26 01:17:39;;;;;;;10.70;3.33;;;;;;;4.85;100.00;100870.22;5015854;28;20192;-69
2024/03/26 01:20:05;;;;;;;14.83;2.93;;;;;;;4.68;100.00;100832.94;5013525;28;20188;-69
2024/03/26 01:22:30;;;;;;;8.27;3.37;;;;;;;4.39;100.00;100798.78;4992436;28;20553;-69
2024/03/26 01:24:55;;;;;;;9.90;2.93;;;;;;;4.82;100.00;100862.56;5009829;28;21087;-69
2024/03/26 01:27:21;;;;;;;14.13;4.13;;;;;;;4.17;100.00;100741.78;5012949;28;20656;-69
2024/03/26 01:29:46;;;;;;;9.50;3.60;;;;;;;4.82;100.00;100843.97;4989756;28;20193;-69
2024/03/26 01:32:12;;;;;;;8.10;3.07;;;;;;;4.09;100.00;100744.41;5005292;28;20274;-69
2024/03/26 01:34:37;;;;;;;10.23;3.40;;;;;;;4.54;100.00;100817.59;5017583;28;20601;-68
2024/03/26 01:37:02;;;;;;;9.87;3.33;;;;;;;4.58;100.00;100811.00;5006436;28;22990;-68
2024/03/26 01:39:28;;;;;;;7.20;3.03;;;;;;;4.25;100.00;100770.19;5014543;28;20549;-68
2024/03/26 01:41:53;;;;;;;9.00;3.10;;;;;;;4.36;100.00;100788.50;5009577;28;20698;-69
2024/03/26 01:44:19;;;;;;;8.50;3.50;;;;;;;4.61;100.00;100829.28;5009505;28;20192;-69
2024/03/26 01:46:44;;;;;;;8.63;3.10;;;;;;;4.45;100.00;100798.16;4994388;28;20259;-68
2024/03/26 01:49:11;;;;;;;8.63;2.97;;;;;;;4.22;100.00;100760.75;4996578;28;20713;-68
2024/03/26 01:51:39;;;;;;;10.37;2.97;;;;;;;4.51;100.00;100813.47;4992016;28;20220;-68
2024/03/26 01:54:05;;;;;;;10.67;2.80;;;;;;;4.78;100.00;100829.34;5013238;28;20461;-68
2024/03/26 01:56:31;;;;;;;11.33;3.40;;;;;;;4.50;100.00;100806.47;5012817;28;20439;-68
2024/03/26 01:58:58;;;;;;;14.83;3.40;;;;;;;4.58;100.00;100805.69;5019105;28;20274;-69
2024/03/26 02:01:26;;;;;;;8.70;3.07;;;;;;;4.78;100.00;100830.19;5012180;28;21046;-69
2024/03/26 02:03:52;;;;;;;10.30;3.53;;;;;;;4.83;100.00;100821.69;5033351;22;21004;-68
2024/03/26 02:06:17;;;;;;;11.77;3.00;;;;;;;4.46;100.00;100794.53;5023441;28;20447;-69
2024/03/26 02:08:43;;;;;;;11.43;3.67;;;;;;;4.33;100.00;100782.69;5027699;28;20199;-69
2024/03/26 02:11:09;;;;;;;12.83;3.60;;;;;;;3.87;100.00;100719.25;5026207;28;20215;-69
2024/03/26 02:13:35;;;;;;;12.53;3.57;;;;;;;4.23;100.00;100764.22;5026860;28;20211;-69
2024/03/26 02:16:00;;;;;;;8.77;3.60;;;;;;;4.54;100.00;100796.34;5027157;28;20441;-69
2024/03/26 02:18:25;;;;;;;10.80;3.20;;;;;;;4.52;100.00;100785.09;5023577;28;20207;-69
2024/03/26 02:20:51;;;;;;;7.00;3.00;;;;;;;3.99;100.00;100707.38;5021074;28;20200;-69
2024/03/26 02:23:20;;;;;;;10.00;3.40;;;;;;;4.67;100.00;100794.09;5024863;28;20198;-69
2024/03/26 02:25:46;;;;;;;7.90;3.20;;;;;;;4.17;100.00;100727.69;5023964;28;20660;-69
2024/03/26 02:28:11;;;;;;;7.97;3.03;;;;;;;4.61;100.00;100800.06;5026429;28;20601;-69
2024/03/26 02:30:37;;;;;;;10.07;3.30;;;;;;;3.79;100.00;100671.44;5025712;28;20216;-69
2024/03/26 02:33:02;;;;;;;10.07;3.50;;;;;;;4.22;100.00;100723.56;5024264;28;20212;-69
2024/03/26 02:35:28;;;;;;;6.90;2.87;;;;;;;4.42;100.00;100771.09;5025475;28;20179;-69
2024/03/26 02:37:54;;;;;;;14.53;3.20;;;;;;;4.67;100.00;100779.97;5022449;28;20195;-67
2024/03/26 02:40:19;;;;;;;9.77;2.90;;;;;;;4.32;100.00;100738.53;5024412;28;20557;-67
2024/03/26 02:42:45;;;;;;;8.27;3.57;;;;;;;4.55;100.00;100776.78;5020364;28;20462;-67
2024/03/26 02:45:11;;;;;;;10.30;3.10;;;;;;;3.92;100.00;100706.34;5024736;28;20196;-67
2024/03/26 02:47:36;;;;;;;7.70;2.90;;;;;;;3.57;100.00;100663.06;5024932;28;20890;-67
2024/03/26 02:50:02;;;;;;;11.80;3.30;;;;;;;3.94;100.00;100690.28;5025230;28;20223;-67
2024/03/26 02:52:27;;;;;;;8.70;3.80;;;;;;;3.58;100.00;100635.53;5022578;28;20212;-67
2024/03/26 02:54:53;;;;;;;8.70;2.90;;;;;;;3.55;100.00;100624.41;5022944;28;20191;-67
2024/03/26 02:57:18;;;;;;;9.73;2.93;;;;;;;4.21;100.00;100740.47;5022166;28;20612;-67
2024/03/26 02:59:43;;;;;;;9.70;3.13;;;;;;;4.29;100.00;100750.31;5025426;28;20534;-68
2024/03/26 03:02:09;;;;;;;14.63;3.63;;;;;;;3.89;100.00;100671.34;5020841;28;20204;-67
2024/03/26 03:04:35;;;;;;;7.67;3.07;;;;;;;3.80;100.00;100658.03;5023766;28;20199;-67
2024/03/26 03:07:00;;;;;;;8.10;3.33;;;;;;;3.98;100.00;100696.91;5024819;28;20211;-68
2024/03/26 03:09:25;;;;;;;11.33;3.53;;;;;;;3.85;100.00;100654.91;5025803;28;20183;-67
2024/03/26 03:11:51;;;;;;;9.13;3.30;;;;;;;3.16;100.00;100570.03;5022995;28;20279;-69
2024/03/26 03:14:16;;;;;;;7.80;3.10;;;;;;;3.24;100.00;100561.31;5023144;28;20190;-68
2024/03/26 03:16:42;;;;;;;8.50;2.77;;;;;;;3.76;100.00;100646.09;5023169;28;20637;-68
2024/03/26 03:19:07;;;;;;;11.47;3.73;;;;;;;3.71;100.00;100634.28;5023136;28;20204;-68
2024/03/26 03:21:34;;;;;;;9.00;3.40;;;;;;;3.40;100.00;100609.09;5018385;28;20227;-68
2024/03/26 03:23:59;;;;;;;12.33;3.93;;;;;;;4.01;100.00;100688.63;5043387;28;20433;-68
2024/03/26 03:26:25;;;;;;;9.07;3.20;;;;;;;3.97;100.00;100713.84;5018643;28;20196;-68
2024/03/26 03:28:50;;;;;;;9.90;3.53;;;;;;;3.55;100.00;100635.84;5027996;28;20649;-68
2024/03/26 03:31:16;;;;;;;10.20;3.80;;;;;;;3.95;100.00;100699.88;5039456;28;20244;-68
2024/03/26 03:33:41;;;;;;;11.23;3.30;;;;;;;3.68;100.00;100654.00;5030664;28;20255;-68
2024/03/26 03:36:07;;;;;;;8.33;2.60;;;;;;;4.02;100.00;100698.25;5031160;28;20203;-68
2024/03/26 03:38:32;;;;;;;8.67;3.40;;;;;;;3.72;100.00;100642.06;5032146;28;20200;-68
2024/03/26 03:40:58;;;;;;;9.30;3.00;;;;;;;2.22;100.00;100403.09;5021407;28;20199;-68
2024/03/26 03:43:23;;;;;;;8.73;3.83;;;;;;;3.88;100.00;100662.53;5024466;28;20188;-67
2024/03/26 03:45:49;;;;;;;6.00;2.33;;;;;;;3.24;100.00;100566.59;5021034;28;20641;-68
2024/03/26 03:48:14;;;;;;;8.30;2.50;;;;;;;3.21;100.00;100531.59;5027822;28;20187;-68
2024/03/26 03:50:39;;;;;;;9.00;3.00;;;;;;;3.16;100.00;100519.69;5023022;28;20697;-68
2024/03/26 03:53:05;;;;;;;10.73;3.00;;;;;;;3.93;100.00;100604.50;5022616;28;20692;-69
2024/03/26 03:55:30;;;;;;;7.40;2.53;;;;;;;3.57;100.00;100550.84;5025182;28;20191;-68
2024/03/26 03:57:57;;;;;;;9.67;3.73;;;;;;;4.33;100.00;100671.16;5020182;28;20188;-68
2024/03/26 04:00:22;;;;;;;11.83;3.30;;;;;;;4.35;100.00;100669.16;5025408;28;20231;-68
2024/03/26 04:02:48;;;;;;;8.63;2.93;;;;;;;4.32;100.00;100641.13;5024874;28;20982;-68
2024/03/26 04:05:13;;;;;;;6.07;2.30;;;;;;;4.50;100.00;100656.91;5020413;28;20259;-68
2024/03/26 04:07:39;;;;;;;9.97;2.87;;;;;;;4.42;100.00;100651.56;5033284;28;20180;-68
2024/03/26 04:10:05;;;;;;;9.90;3.60;;;;;;;4.46;100.00;100643.13;5019147;28;20217;-68
2024/03/26 04:12:30;;;;;;;7.73;2.70;;;;;;;4.48;100.00;100627.00;5024587;28;20592;-68
2024/03/26 04:14:56;;;;;;;7.90;2.93;;;;;;;4.51;100.00;100637.31;5028441;28;20442;-68
2024/03/26 04:17:22;;;;;;;10.70;3.20;;;;;;;4.03;100.00;100546.81;5023305;28;20199;-68
2024/03/26 04:19:47;;;;;;;6.50;2.70;;;;;;;4.46;100.00;100611.25;5022350;28;20692;-68
2024/03/26 04:22:12;;;;;;;7.10;2.87;;;;;;;3.85;100.00;100539.00;5017994;28;20247;-68
2024/03/26 04:24:38;;;;;;;9.90;2.70;;;;;;;3.20;100.00;100430.06;5021915;28;20350;-68
2024/03/26 04:27:03;;;;;;;9.77;3.23;;;;;;;4.11;100.00;100532.72;5019162;28;20438;-68
2024/03/26 04:29:29;;;;;;;7.70;2.90;;;;;;;3.97;100.00;100536.84;5028996;28;20645;-68
2024/03/26 04:31:54;;;;;;;7.30;2.87;;;;;;;4.06;100.00;100535.88;5020500;28;20227;-68
2024/03/26 04:34:20;;;;;;;8.00;3.00;;;;;;;3.91;100.00;100512.81;5022430;28;20196;-68
2024/03/26 04:36:46;;;;;;;10.33;2.97;;;;;;;3.21;100.00;100433.53;5024438;28;20235;-68
2024/03/26 04:39:11;;;;;;;8.40;3.03;;;;;;;3.39;100.00;100442.22;5034887;28;20183;-69
2024/03/26 04:41:37;;;;;;;10.03;3.33;;;;;;;3.31;100.00;100416.53;5025387;28;20516;-68
2024/03/26 04:44:03;;;;;;;8.50;3.00;;;;;;;4.17;100.00;100532.06;5024280;28;20438;-69
2024/03/26 04:46:29;;;;;;;7.57;2.37;;;;;;;3.93;100.00;100486.91;5024556;28;20950;-68
2024/03/26 04:48:55;;;;;;;9.90;3.60;;;;;;;4.38;100.00;100522.78;5022141;28;20191;-68
2024/03/26 04:51:21;;;;;;;8.57;3.27;;;;;;;3.99;100.00;100484.44;5022192;28;20840;-68
2024/03/26 04:53:47;;;;;;;10.30;3.07;;;;;;;4.00;100.00;100472.00;5019188;28;20541;-68
2024/03/26 04:56:13;;;;;;;9.20;3.10;;;;;;;4.42;100.00;100506.34;5023993;28;20211;-68
2024/03/26 04:58:40;;;;;;;8.20;2.30;;;;;;;4.55;100.00;100500.53;5018870;28;20478;-68
2024/03/26 05:01:05;;;;;;;12.03;2.40;;;;;;;4.55;100.00;100484.59;5018540;28;20239;-69
2024/03/26 05:03:30;;;;;;;8.83;2.83;;;;;;;4.48;100.00;100480.94;5027231;28;20431;-69
2024/03/26 05:05:56;;;;;;;8.50;2.57;;;;;;;4.59;100.00;100477.13;5029210;28;20537;-68
2024/03/26 05:08:21;;;;;;;6.57;2.47;;;;;;;4.59;100.00;100463.84;5022282;28;20184;-68
2024/03/26 05:10:47;;;;;;;10.60;3.20;;;;;;;3.31;100.00;100246.03;5018400;28;20288;-68
2024/03/26 05:13:13;;;;;;;8.90;2.90;;;;;;;4.22;100.00;100415.59;5019807;28;20252;-68
2024/03/26 05:15:39;;;;;;;8.10;2.73;;;;;;;4.34;100.00;100449.75;5022144;28;20185;-68
2024/03/26 05:18:04;;;;;;;10.17;3.03;;;;;;;4.36;100.00;100431.84;5025455;28;20575;-68
2024/03/26 05:20:30;;;;;;;7.00;2.40;;;;;;;3.87;100.00;100323.06;5020023;28;20196;-68
2024/03/26 05:22:55;;;;;;;9.10;2.67;;;;;;;4.35;100.00;100417.72;5022559;28;20210;-68
2024/03/26 05:25:21;;;;;;;8.40;2.70;;;;;;;4.11;100.00;100392.06;5021527;28;20196;-68
2024/03/26 05:27:46;;;;;;;8.50;3.17;;;;;;;4.23;100.00;100390.72;5022312;28;20702;-68
2024/03/26 05:30:12;;;;;;;10.13;2.53;;;;;;;3.95;100.00;100339.00;5026207;28;20216;-68
2024/03/26 05:32:38;;;;;;;8.10;2.60;;;;;;;3.70;100.00;100301.84;5024798;28;20574;-69
2024/03/26 05:35:04;;;;;;;9.67;2.70;;;;;;;3.80;100.00;100288.44;5027314;28;20240;-68
2024/03/26 05:37:29;;;;;;;10.80;2.90;;;;;;;4.58;100.00;100393.94;5025149;28;20447;-68
2024/03/26 05:39:54;;;;;;;7.23;2.37;;;;;;;4.48;100.00;100375.56;5025186;28;20560;-68
2024/03/26 05:42:21;;;;;;;7.23;2.40;;;;;;;3.79;100.00;100246.97;5023093;28;20250;-68
2024/03/26 05:44:46;;;;;;;6.30;2.23;;;;;;;4.45;100.00;100340.53;5025819;28;20200;-69
2024/03/26 05:47:11;;;;;;;11.27;2.40;;;;;;;3.72;100.00;100238.03;5026696;28;20442;-68
2024/03/26 05:49:37;;;;;;;7.53;2.63;;;;;;;4.42;100.00;100341.69;5024505;28;20191;-68
2024/03/26 05:52:02;;;;;;;9.63;3.00;;;;;;;4.49;100.00;100360.44;5025140;28;20704;-68
2024/03/26 05:54:28;;;;;;;10.10;2.70;;;;;;;4.54;100.00;100350.13;5028145;28;20200;-68
2024/03/26 05:56:53;;;;;;;7.10;2.50;;;;;;;4.28;100.00;100311.38;5027494;28;20196;-68
2024/03/26 05:59:18;;;;;;;6.97;2.50;;;;;;;4.55;100.00;100346.47;5028476;28;20188;-68
2024/03/26 06:01:44;;;;;;;7.00;2.67;;;;;;;4.75;100.00;100352.22;5023034;28;20200;-68
2024/03/26 06:04:09;;;;;;;8.57;2.90;;;;;;;4.59;100.00;100328.38;5024154;28;20639;-68
2024/03/26 06:06:35;;;;;;;12.93;3.03;;;;;;;4.69;100.00;100336.97;5027420;28;20722;-68
2024/03/26 06:09:00;;;;;;;7.07;2.07;;;;;;;4.60;100.00;100309.63;5026349;28;20195;-69
2024/03/26 06:11:26;;;;;;;7.40;2.60;;;;;;;4.60;100.00;100306.97;5025003;28;20224;-68
2024/03/26 06:13:51;;;;;;;9.60;3.07;;;;;;;4.82;100.00;100304.50;5024536;28;20199;-68
2024/03/26 06:16:16;;;;;;;7.30;2.60;;;;;;;4.24;100.00;100246.34;5030811;28;20187;-68
2024/03/26 06:18:42;;;;;;;6.70;2.20;;;;;;;4.69;100.00;100316.53;5027828;28;20192;-68
2024/03/26 06:21:07;;;;;;;9.47;2.43;;;;;;;4.77;100.00;100310.34;5020609;28;20180;-68
2024/03/26 06:23:33;;;;;;;8.93;3.23;;;;;;;4.80;100.00;100306.50;5025870;28;20203;-69
2024/03/26 06:25:58;;;;;;;9.17;3.03;;;;;;;4.40;100.00;100234.00;5022030;28;20483;-68
2024/03/26 06:28:24;;;;;;;8.90;2.10;;;;;;;3.97;100.00;100173.31;5022996;28;20189;-68
2024/03/26 06:30:50;;;;;;;8.67;2.60;;;;;;;4.01;100.00;100149.91;5024379;28;20208;-68
2024/03/26 06:33:16;;;;;;;6.43;2.30;;;;;;;4.99;100.00;100282.16;5025695;28;20874;-68
2024/03/26 06:35:42;;;;;;;9.07;3.00;;;;;;;4.09;100.00;100136.59;5024682;28;20188;-68
2024/03/26 06:38:08;;;;;;;7.17;2.10;;;;;;;4.95;100.00;100247.13;5024362;28;20254;-68
2024/03/26 06:40:37;;;;;;;7.57;2.37;;;;;;;4.91;100.00;100227.22;5029722;28;20438;-73
2024/03/26 06:43:03;;;;;;;7.70;2.47;;;;;;;4.66;100.00;100168.13;5022139;28;20948;-68
2024/03/26 06:45:28;;;;;;;9.13;2.40;;;;;;;4.13;100.00;100070.72;5028187;28;20446;-68
2024/03/26 06:47:54;;;;;;;7.80;2.60;;;;;;;4.50;100.00;100123.91;5023257;28;20438;-68
2024/03/26 06:50:19;;;;;;;8.50;2.67;;;;;;;4.27;100.00;100083.22;5022292;28;20216;-68
2024/03/26 06:52:52;;;;;;;7.20;2.40;;;;;;;5.23;100.00;100222.66;5020032;28;20213;-68
2024/03/26 06:55:18;;;;;;;8.30;2.63;;;;;;;5.12;100.00;100205.31;5022475;28;20696;-68
2024/03/26 06:57:44;;;;;;;10.70;3.13;;;;;;;5.23;100.00;100230.63;5019948;28;20444;-68
2024/03/26 07:00:14;;;;;;;11.63;2.50;;;;;;;4.32;100.00;100069.44;5018583;28;20472;-68
2024/03/26 07:02:40;;;;;;;7.37;2.33;;;;;;;5.13;100.00;100152.97;5022169;28;20515;-68
2024/03/26 07:05:06;;;;;;;11.43;2.87;;;;;;;5.54;100.00;100171.19;5016785;28;20447;-68
2024/03/26 07:07:35;;;;;;;8.17;2.80;;;;;;;4.93;100.00;100055.13;5017315;28;20450;-68
2024/03/26 07:10:00;;;;;;;7.93;2.80;;;;;;;4.48;100.00;99979.88;5016569;28;20443;-68
2024/03/26 07:12:26;;;;;;;9.80;2.93;;;;;;;5.17;100.00;100085.94;5018650;28;20481;-68
2024/03/26 07:14:52;;;;;;;8.47;2.27;;;;;;;5.04;100.00;100072.47;5034321;28;20435;-68
2024/03/26 07:17:17;;;;;;;9.57;2.40;;;;;;;5.30;100.00;100122.56;5022643;28;20192;-68
2024/03/26 07:19:43;;;;;;;9.73;3.20;;;;;;;5.59;100.00;100139.53;5018977;28;20453;-68
2024/03/26 07:22:09;;;;;;;7.10;2.70;;;;;;;4.79;100.00;100013.41;5016281;28;20269;-68
2024/03/26 07:24:35;;;;;;;6.37;2.53;;;;;;;4.95;100.00;100005.28;5014236;28;20199;-69
2024/03/26 07:27:00;;;;;;;10.67;3.23;;;;;;;5.76;100.00;100127.72;5017968;28;20446;-68
2024/03/26 07:29:26;;;;;;;8.30;2.70;;;;;;;5.67;100.00;100091.56;5015614;28;20235;-68
2024/03/26 07:31:51;;;;;;;7.97;2.53;;;;;;;5.17;100.00;99966.31;5025278;28;20750;-68
2024/03/26 07:34:17;;;;;;;9.00;2.60;;;;;;;6.02;100.00;100068.69;5025516;28;20195;-68
2024/03/26 07:36:42;;;;;;;8.37;2.80;;;;;;;5.74;100.00;100017.97;5021716;28;20190;-68
2024/03/26 07:39:13;;;;;;;6.27;2.23;;;;;;;6.14;100.00;100046.88;5022755;28;20747;-68
2024/03/26 07:41:39;;;;;;;8.67;2.30;;;;;;;5.66;100.00;99930.25;5022119;28;20202;-68
2024/03/26 07:44:04;;;;;;;6.73;2.30;;;;;;;5.37;100.00;99846.06;5021606;28;20436;-68
2024/03/26 07:46:29;;;;;;;6.40;2.00;;;;;;;6.29;100.00;99957.09;5024713;28;20720;-68
2024/03/26 07:48:55;;;;;;;7.73;2.43;;;;;;;6.26;100.00;99914.88;5025294;28;20197;-68
2024/03/26 07:51:20;;;;;;;7.67;2.30;;;;;;;6.56;100.00;99947.44;5023571;28;20272;-69
2024/03/26 07:53:48;;;;;;;8.40;2.20;;;;;;;6.15;100.00;99852.31;5022181;28;20254;-68
2024/03/26 07:56:14;;;;;;;8.33;3.00;;;;;;;6.27;100.00;99821.44;5026326;28;20303;-69
2024/03/26 07:58:39;;;;;;;9.37;2.50;;;;;;;6.66;100.00;99843.19;5018716;28;20443;-68
2024/03/26 08:01:04;;;;;;;7.33;2.50;;;;;;;6.77;100.00;99811.47;5019044;28;20192;-68
2024/03/26 08:03:30;;;;;;;6.50;2.20;;;;;;;4.73;100.00;99461.59;5043524;22;20295;-69
2024/03/26 08:05:56;;;;;;;6.73;2.63;;;;;;;6.66;100.00;99750.75;5000850;28;20248;-72
2024/03/26 08:08:21;;;;;;;7.67;2.30;;;;;;;6.78;100.00;99745.66;5019855;28;20366;-72
2024/03/26 08:10:46;;;;;;;9.40;2.20;;;;;;;6.90;100.00;99725.38;5019434;28;20208;-73
2024/03/26 08:13:12;;;;;;;8.00;2.47;;;;;;;6.74;100.00;99681.28;5019939;28;20224;-73
2024/03/26 08:15:37;;;;;;;7.50;2.87;;;;;;;6.80;100.00;99663.66;5019915;28;20192;-72
2024/03/26 08:18:03;;;;;;;9.33;2.87;;;;;;;7.13;100.00;99697.53;5019112;28;20192;-72
2024/03/26 08:20:30;;;;;;;7.17;2.43;;;;;;;7.29;100.00;99665.13;5019153;28;20191;-73
2024/03/26 08:22:57;;;;;;;7.70;2.40;;;;;;;6.89;100.00;99558.50;5004661;28;20595;-73
2024/03/26 08:25:22;;;;;;;8.40;2.57;;;;;;;7.64;100.00;99656.88;5015887;28;20443;-72
2024/03/26 08:27:48;;;;;;;8.47;2.37;;;;;;;7.70;100.00;99635.50;5002486;28;20811;-72
2024/03/26 08:30:13;;;;;;;7.03;2.43;;;;;;;7.73;100.00;99588.91;5000928;28;20239;-73
2024/03/26 08:32:38;;;;;;;8.87;2.43;;;;;;;7.02;100.00;99419.81;5016332;28;20590;-72
2024/03/26 08:35:04;;;;;;;8.10;2.50;;;;;;;7.31;100.00;99436.34;5016874;28;20243;-72
2024/03/26 08:37:30;;;;;;;8.23;2.67;;;;;;;6.34;100.00;99283.53;5016898;28;20242;-72
2024/03/26 08:39:55;;;;;;;8.00;2.60;;;;;;;7.67;100.00;99453.63;5019416;28;20279;-73
2024/03/26 08:42:21;;;;;;;6.83;2.83;;;;;;;7.73;100.00;99442.09;5003132;28;20208;-70
2024/03/26 08:44:47;;;;;;;6.97;2.50;;;;;;;7.93;100.00;99458.81;5003636;28;20184;-70
2024/03/26 08:47:13;;;;;;;7.63;2.43;;;;;;;7.32;100.00;99299.28;5020178;28;20434;-70
2024/03/26 08:49:38;;;;;;;7.50;2.37;;;;;;;7.75;100.00;99316.41;5020589;28;20235;-70
2024/03/26 08:52:04;;;;;;;9.23;2.73;;;;;;;7.39;100.00;99217.38;5014695;28;20763;-70
2024/03/26 08:54:29;;;;;;;9.60;3.10;;;;;;;8.02;100.00;99264.44;5020532;28;20228;-70
2024/03/26 08:56:54;;;;;;;5.07;1.83;;;;;;;8.06;100.00;99268.28;5018276;28;20223;-72
2024/03/26 08:59:20;;;;;;;7.90;2.37;;;;;;;8.03;100.00;99234.03;5021007;28;20202;-72
2024/03/26 09:01:45;;;;;;;6.90;2.30;;;;;;;8.21;100.00;99243.91;5004641;28;20235;-72
2024/03/26 09:04:11;;;;;;;11.97;2.40;;;;;;;8.21;100.00;99230.53;5017937;28;20261;-72
2024/03/26 09:06:36;;;;;;;8.23;2.67;;;;;;;7.87;100.00;99174.03;5025510;28;20585;-72
2024/03/26 09:09:02;;;;;;;7.70;2.77;;;;;;;8.30;100.00;99197.16;5022780;28;20188;-71
2024/03/26 09:11:28;;;;;;;7.50;2.63;;;;;;;7.88;100.00;99111.59;5007098;28;20234;-72
2024/03/26 09:13:53;;;;;;;6.03;2.30;;;;;;;8.30;100.00;99165.13;5022857;28;20911;-70
2024/03/26 09:16:19;;;;;;;11.47;2.63;;;;;;;7.89;100.00;99072.34;5025597;28;20697;-70
2024/03/26 09:18:44;;;;;;;8.30;2.87;;;;;;;8.59;100.00;99157.34;5021110;28;20207;-70
2024/03/26 09:21:10;;;;;;;8.43;2.70;;;;;;;8.02;100.00;99031.34;5022040;28;20184;-70
2024/03/26 09:23:36;;;;;;;7.67;2.63;;;;;;;8.46;100.00;99069.38;5023697;28;20193;-70
2024/03/26 09:26:03;;;;;;;8.43;2.60;;;;;;;8.48;100.00;99056.59;5025505;28;20255;-70
2024/03/26 09:28:28;;;;;;;7.97;2.40;;;;;;;8.06;100.00;98979.91;5019843;28;20188;-70
2024/03/26 09:30:54;;;;;;;7.43;2.50;;;;;;;8.49;100.00;99047.53;5021885;28;20470;-70
2024/03/26 09:33:20;;;;;;;7.97;2.60;;;;;;;8.95;100.00;99089.56;5003310;28;20476;-70
2024/03/26 09:35:46;;;;;;;8.37;2.60;;;;;;;8.66;100.00;99028.97;5009460;28;20219;-70
2024/03/26 09:38:12;;;;;;;7.93;2.57;;;;;;;9.19;100.00;99047.59;5007122;28;20477;-70
2024/03/26 09:40:46;;;;;;;5.73;2.30;;;;;;;8.49;100.00;98920.09;5005292;28;21092;-70
2024/03/26 09:43:13;;;;;;;7.53;2.50;;;;;;;8.52;100.00;98895.56;5020992;28;20204;-70
2024/03/26 09:45:39;;;;;;;8.33;2.53;;;;;;;8.70;100.00;98893.81;5025695;28;20834;-70
2024/03/26 09:48:06;;;;;;;6.87;2.50;;;;;;;9.42;100.00;99022.69;5024903;28;20477;-70
2024/03/26 09:50:33;;;;;;;9.50;2.73;;;;;;;9.46;100.00;99001.63;5020593;28;20208;-70
2024/03/26 09:52:59;;;;;;;9.30;2.83;;;;;;;9.58;100.00;99001.59;5024217;28;20986;-70
2024/03/26 09:55:27;;;;;;;8.50;2.67;;;;;;;8.93;100.00;98836.81;5007520;28;20585;-70
2024/03/26 09:57:53;;;;;;;8.43;2.80;;;;;;;9.11;100.00;98857.22;5023300;28;20439;-69
2024/03/26 10:00:19;;;;;;;9.53;2.50;;;;;;;9.13;100.00;98872.00;5020726;28;20943;-70
2024/03/26 10:02:46;;;;;;;6.30;2.10;;;;;;;9.76;100.00;98949.75;5019369;28;20330;-70
2024/03/26 10:05:16;;;;;;;7.60;2.50;;;;;;;9.70;100.00;98893.41;5022561;28;20951;-70
2024/03/26 10:07:44;;;;;;;10.47;2.60;;;;;;;8.74;100.00;98740.78;5003474;28;21045;-70
2024/03/26 10:10:10;;;;;;;9.70;2.80;;;;;;;9.70;100.00;98804.25;5001620;28;20954;-70
2024/03/26 10:12:38;;;;;;;7.90;2.63;;;;;;;9.90;100.00;98828.69;5020670;28;20506;-70
2024/03/26 10:15:05;;;;;;;6.27;2.30;;;;;;;9.33;100.00;98732.47;5019599;28;20504;-70
2024/03/26 10:17:30;;;;;;;7.83;2.43;;;;;;;9.79;100.00;98792.09;5005368;28;20986;-70
2024/03/26 10:19:56;;;;;;;11.30;2.70;;;;;;;10.14;100.00;98767.72;5020018;28;20446;-70
2024/03/26 10:22:21;;;;;;;5.90;2.50;;;;;;;9.83;100.00;98731.63;5019428;28;20215;-70
2024/03/26 10:24:48;;;;;;;6.03;2.63;;;;;;;9.85;100.00;98777.72;5003659;28;20196;-70
2024/03/26 10:27:13;;;;;;;8.03;2.77;;;;;;;10.08;100.00;98784.78;5004661;28;20177;-70
2024/03/26 10:29:39;;;;;;;7.33;2.50;;;;;;;9.33;100.00;98700.34;5001760;28;20431;-70
2024/03/26 10:32:05;;;;;;;9.07;2.70;;;;;;;10.02;100.00;98884.06;5018261;28;20215;-70
2024/03/26 10:34:32;;;;;;;7.30;2.47;;;;;;;10.04;100.00;98906.88;5020989;28;20250;-70
2024/03/26 10:37:01;;;;;;;6.70;2.47;;;;;;;10.03;100.00;98940.03;5020519;28;20184;-70
2024/03/26 10:39:32;;;;;;;8.17;3.03;;;;;;;10.01;100.00;98936.81;5003156;28;20451;-70
2024/03/26 10:41:58;;;;;;;5.77;2.47;;;;;;;9.56;100.00;98864.50;5005594;28;20478;-70
2024/03/26 10:44:24;;;;;;;7.90;2.40;;;;;;;9.99;100.00;98979.09;5024708;28;20518;-69
2024/03/26 10:46:50;;;;;;;7.03;2.37;;;;;;;10.18;100.00;98966.28;5023419;28;20570;-69
2024/03/26 10:49:20;;;;;;;7.50;2.77;;;;;;;9.90;100.00;98914.38;5023450;28;20188;-70
2024/03/26 10:51:46;;;;;;;7.57;2.30;;;;;;;10.47;100.00;98987.69;5007180;28;20466;-70
2024/03/26 10:54:12;;;;;;;8.80;2.50;;;;;;;10.46;100.00;98930.59;5024725;28;20426;-70
2024/03/26 10:56:39;;;;;;;8.17;2.70;;;;;;;9.85;100.00;98807.19;5019605;28;20191;-70
2024/03/26 10:59:05;;;;;;;8.40;2.70;;;;;;;10.60;100.00;98910.44;5006124;28;20824;-70
2024/03/26 11:01:31;;;;;;;6.70;2.20;;;;;;;9.83;100.00;98790.53;4998462;28;20462;-70
2024/03/26 11:03:58;;;;;;;11.27;2.30;;;;;;;10.05;100.00;98817.41;5021732;28;20477;-71
2024/03/26 11:06:24;;;;;;;9.37;2.43;;;;;;;10.53;100.00;98914.34;5021946;28;20450;-70
2024/03/26 11:08:58;;;;;;;7.57;2.33;;;;;;;10.84;100.00;99022.88;5002476;28;20450;-70
2024/03/26 11:11:23;;;;;;;10.53;2.60;;;;;;;11.09;100.00;98883.75;5020580;28;20274;-70
2024/03/26 11:13:56;;;;;;;6.67;1.97;;;;;;;10.55;100.00;98896.16;5004276;28;20447;-70
2024/03/26 11:16:38;;;;;;;6.40;2.20;;;;;;;11.07;100.00;99046.84;5022674;28;20200;-71
2024/03/26 11:19:17;;;;;;;8.73;2.20;;;;;;;10.63;100.00;99065.44;5023843;28;20443;-70
2024/03/26 11:21:43;;;;;;;8.47;2.00;;;;;;;11.05;100.00;99163.50;5000289;28;20504;-70